Time;durP1;ratioP1;P1;durP2;ratioP2;P2;SDS_P1;SDS_P2;PMS_P1;PMS_P2;Temp;Humidity;BMP_temperature;BMP_pressure;BME280_temperature;BME280_humidity;BME280_pressure;Samples;Min_cycle;Max_cycle;Signal;HPM_P1;HPM_P2
2022/11/20 00:00:49;;;;;;;19.77;10.20;;;;;;;-0.77;81.28;101271.06;5035367;28;20180;-70
2022/11/20 00:03:14;;;;;;;21.85;11.13;;;;;;;-0.81;81.24;101270.69;5030996;28;20021;-70
2022/11/20 00:05:40;;;;;;;19.85;10.85;;;;;;;-0.84;81.95;101273.00;5035352;28;20256;-70
2022/11/20 00:08:06;;;;;;;25.67;11.88;;;;;;;-0.84;81.45;101279.03;5042522;28;20028;-70
2022/11/20 00:10:31;;;;;;;20.75;11.48;;;;;;;-0.86;81.21;101272.91;5037325;28;20010;-70
2022/11/20 00:12:58;;;;;;;20.00;10.93;;;;;;;-0.90;82.00;101276.00;5037616;28;20256;-70
2022/11/20 00:15:23;;;;;;;22.27;11.38;;;;;;;-0.92;81.44;101268.19;5033065;28;20032;-70
2022/11/20 00:17:48;;;;;;;21.45;10.85;;;;;;;-0.97;81.98;101266.06;5037199;28;20294;-71
2022/11/20 00:20:14;;;;;;;24.00;10.85;;;;;;;-1.01;81.47;101272.63;5026073;28;20031;-71
2022/11/20 00:22:39;;;;;;;21.17;10.88;;;;;;;-1.03;81.39;101271.59;5025389;28;20041;-71
2022/11/20 00:25:05;;;;;;;22.27;10.90;;;;;;;-1.06;81.94;101272.28;5028173;28;20320;-70
2022/11/20 00:27:30;;;;;;;23.60;11.38;;;;;;;-1.06;82.35;101279.03;5033951;28;20084;-71
2022/11/20 00:29:55;;;;;;;20.45;11.00;;;;;;;-1.08;81.90;101283.16;5044462;28;20075;-71
2022/11/20 00:32:20;;;;;;;23.98;12.05;;;;;;;-1.11;82.20;101271.00;5034141;28;20018;-71
2022/11/20 00:34:46;;;;;;;22.25;11.20;;;;;;;-1.12;82.44;101270.91;5036324;28;20088;-71
2022/11/20 00:37:11;;;;;;;21.33;11.07;;;;;;;-1.15;82.34;101273.22;5041282;28;20025;-71
2022/11/20 00:39:36;;;;;;;25.10;11.77;;;;;;;-1.13;82.01;101266.53;5039598;28;20026;-71
2022/11/20 00:42:02;;;;;;;22.98;11.38;;;;;;;-1.16;82.04;101264.66;5030134;28;20248;-71
2022/11/20 00:44:27;;;;;;;20.65;11.00;;;;;;;-1.19;82.36;101266.09;5037662;28;20092;-71
2022/11/20 00:46:52;;;;;;;23.55;11.38;;;;;;;-1.24;82.77;101266.59;5040908;28;20109;-71
2022/11/20 00:49:17;;;;;;;22.40;10.52;;;;;;;-1.28;82.51;101267.13;5037134;28;20026;-71
2022/11/20 00:51:43;;;;;;;23.20;11.43;;;;;;;-1.29;82.70;101264.47;5043421;28;20048;-71
2022/11/20 00:54:08;;;;;;;25.00;11.88;;;;;;;-1.30;82.24;101272.94;5034503;28;20036;-71
2022/11/20 00:56:33;;;;;;;21.50;11.18;;;;;;;-1.34;82.25;101271.78;5041843;28;20017;-71
2022/11/20 00:59:00;;;;;;;23.08;11.85;;;;;;;-1.40;82.64;101259.41;5034931;28;20208;-72
2022/11/20 01:01:28;;;;;;;22.65;10.65;;;;;;;-1.40;82.56;101267.09;5037463;28;20017;-71
2022/11/20 01:03:57;;;;;;;21.52;10.57;;;;;;;-1.41;82.89;101269.50;5027376;28;20025;-71
2022/11/20 01:06:28;;;;;;;26.60;12.03;;;;;;;-1.43;81.83;101258.28;5046340;28;20256;-72
2022/11/20 01:08:56;;;;;;;26.02;11.10;;;;;;;-1.48;82.66;101257.03;5032872;28;20064;-72
2022/11/20 01:11:27;;;;;;;24.80;11.60;;;;;;;-1.49;82.38;101260.34;5036967;28;20021;-72
2022/11/20 01:13:54;;;;;;;22.23;11.43;;;;;;;-1.51;82.98;101257.66;5029313;28;20146;-72
2022/11/20 01:16:20;;;;;;;23.33;11.38;;;;;;;-1.50;82.82;101261.16;5033283;28;20017;-72
2022/11/20 01:18:47;;;;;;;22.38;11.13;;;;;;;-1.53;82.74;101258.34;5046928;28;20144;-71
2022/11/20 01:21:16;;;;;;;24.05;11.20;;;;;;;-1.57;83.02;101258.06;5033437;28;20022;-72
2022/11/20 01:23:42;;;;;;;24.50;11.63;;;;;;;-1.60;83.57;101260.41;5039608;28;20029;-72
2022/11/20 01:26:11;;;;;;;22.27;11.05;;;;;;;-1.60;83.40;101267.19;5031991;28;20029;-72
2022/11/20 01:28:37;;;;;;;21.88;11.20;;;;;;;-1.63;82.98;101264.38;5034876;28;20033;-72
2022/11/20 01:31:17;;;;;;;23.58;11.68;;;;;;;-1.67;83.58;101263.22;5040153;28;20046;-72
2022/11/20 01:33:43;;;;;;;24.17;11.07;;;;;;;-1.70;83.47;101263.00;5040900;28;20042;-72
2022/11/20 01:36:10;;;;;;;25.98;11.68;;;;;;;-1.71;83.42;101261.19;5034502;28;20284;-72
2022/11/20 01:38:35;;;;;;;23.45;11.93;;;;;;;-1.73;83.31;101255.09;5036576;28;20269;-71
2022/11/20 01:41:01;;;;;;;24.08;11.90;;;;;;;-1.75;83.56;101256.66;5039494;28;20028;-71
2022/11/20 01:43:28;;;;;;;21.52;11.00;;;;;;;-1.78;83.72;101254.72;5040083;28;20099;-71
2022/11/20 01:46:03;;;;;;;23.80;11.73;;;;;;;-1.79;83.32;101249.50;5029514;28;20100;-71
2022/11/20 01:48:34;;;;;;;22.15;10.48;;;;;;;-1.80;83.66;101256.25;5035391;28;20089;-71
2022/11/20 01:51:02;;;;;;;22.55;11.07;;;;;;;-1.82;83.31;101254.38;5030768;28;20025;-71
2022/11/20 01:53:32;;;;;;;23.88;11.20;;;;;;;-1.86;84.00;101252.34;5033830;28;20092;-70
2022/11/20 01:56:00;;;;;;;21.67;11.13;;;;;;;-1.87;84.66;101253.09;5041485;28;20122;-71
2022/11/20 01:58:32;;;;;;;22.85;11.73;;;;;;;-1.86;84.75;101262.56;5032655;28;20018;-71
2022/11/20 02:00:57;;;;;;;23.95;11.10;;;;;;;-1.85;84.01;101261.78;5035529;28;20276;-70
2022/11/20 02:03:23;;;;;;;21.67;10.75;;;;;;;-1.87;84.23;101258.22;5038440;28;20081;-71
2022/11/20 02:06:15;;;;;;;22.00;10.55;;;;;;;-1.90;84.55;101261.41;5007147;28;20029;-71
2022/11/20 02:08:40;;;;;;;22.90;10.90;;;;;;;-1.94;84.63;101257.72;5008977;28;20021;-71
2022/11/20 02:11:06;;;;;;;25.42;11.57;;;;;;;-1.97;85.05;101244.72;5023208;28;20024;-71
2022/11/20 02:13:43;;;;;;;22.85;11.00;;;;;;;-1.96;85.18;101249.03;5024266;28;20021;-71
2022/11/20 02:16:31;;;;;;;23.90;10.68;;;;;;;-1.96;84.69;101261.78;5007812;28;20025;-71
2022/11/20 02:18:59;;;;;;;21.20;10.32;;;;;;;-2.02;84.93;101253.66;5024329;28;20029;-71
2022/11/20 02:21:32;;;;;;;23.83;11.18;;;;;;;-2.06;84.87;101251.63;5025510;28;20025;-70
2022/11/20 02:24:13;;;;;;;20.40;10.35;;;;;;;-2.08;85.25;101240.41;5025437;28;20027;-70
2022/11/20 02:26:50;;;;;;;22.63;11.20;;;;;;;-2.07;85.77;101248.94;5032818;28;20881;-70
2022/11/20 02:29:21;;;;;;;21.98;11.00;;;;;;;-2.05;85.42;101257.63;5034328;28;20028;-70
2022/11/20 02:31:47;;;;;;;24.50;11.27;;;;;;;-2.06;85.62;101237.97;5038148;28;20083;-71
2022/11/20 02:34:12;;;;;;;23.98;11.43;;;;;;;-2.07;86.04;101241.28;5041157;28;20025;-71
2022/11/20 02:36:41;;;;;;;23.80;11.60;;;;;;;-2.07;86.01;101231.97;5037603;28;20021;-71
2022/11/20 02:39:07;;;;;;;23.88;10.95;;;;;;;-2.07;86.40;101231.97;5040892;28;20047;-70
2022/11/20 02:41:34;;;;;;;25.67;11.70;;;;;;;-2.07;87.04;101238.72;5043019;28;20049;-70
2022/11/20 02:44:00;;;;;;;24.90;11.95;;;;;;;-2.07;86.72;101226.88;5037229;28;20033;-71
2022/11/20 02:46:25;;;;;;;24.75;12.10;;;;;;;-2.05;86.40;101230.44;5037391;28;20089;-70
2022/11/20 02:48:51;;;;;;;24.45;11.85;;;;;;;-2.01;86.26;101232.47;5023441;28;20017;-70
2022/11/20 02:51:16;;;;;;;20.77;11.13;;;;;;;-2.02;85.80;101238.34;5031100;28;20032;-70
2022/11/20 02:53:41;;;;;;;22.17;11.40;;;;;;;-2.04;86.11;101234.78;5035165;28;20022;-71
2022/11/20 02:56:07;;;;;;;25.42;11.90;;;;;;;-2.05;86.24;101235.53;5029379;28;20085;-71
2022/11/20 02:58:32;;;;;;;27.25;13.30;;;;;;;-2.05;86.15;101232.09;5034443;28;20017;-71
2022/11/20 03:00:58;;;;;;;28.58;13.18;;;;;;;-2.06;86.11;101241.41;5032223;28;20030;-71
2022/11/20 03:03:23;;;;;;;27.42;12.27;;;;;;;-2.07;86.23;101233.63;5032554;28;20013;-71
2022/11/20 03:05:48;;;;;;;26.92;13.10;;;;;;;-2.07;86.38;101237.09;5039154;28;20197;-71
2022/11/20 03:08:13;;;;;;;28.13;13.27;;;;;;;-2.02;86.08;101225.56;5041066;28;20025;-70
2022/11/20 03:10:39;;;;;;;26.10;13.15;;;;;;;-1.98;86.51;101234.38;5038147;28;20275;-70
2022/11/20 03:13:04;;;;;;;26.45;12.43;;;;;;;-1.96;86.10;101226.06;5033381;28;20025;-71
2022/11/20 03:15:29;;;;;;;27.75;13.00;;;;;;;-1.95;86.31;101232.06;5034102;28;20044;-70
2022/11/20 03:17:55;;;;;;;25.52;12.57;;;;;;;-1.94;86.65;101233.84;5038392;28;20157;-71
2022/11/20 03:20:21;;;;;;;28.45;13.20;;;;;;;-1.97;86.95;101229.41;5035565;28;20044;-71
2022/11/20 03:22:46;;;;;;;25.80;12.90;;;;;;;-1.96;86.97;101231.16;5030263;28;20025;-71
2022/11/20 03:25:12;;;;;;;28.88;12.73;;;;;;;-1.95;86.36;101232.94;5031199;28;20083;-71
2022/11/20 03:27:37;;;;;;;26.45;12.98;;;;;;;-1.94;86.82;101229.63;5038348;28;20091;-71
2022/11/20 03:30:03;;;;;;;29.63;13.70;;;;;;;-1.94;86.46;101224.53;5032752;28;20264;-71
2022/11/20 03:32:28;;;;;;;30.60;14.02;;;;;;;-1.94;86.63;101229.63;5039786;28;20260;-70
2022/11/20 03:34:54;;;;;;;29.85;14.55;;;;;;;-1.94;87.42;101213.41;5014678;28;20018;-71
2022/11/20 03:37:19;;;;;;;30.02;13.77;;;;;;;-1.93;86.92;101217.75;5037674;28;20014;-71
2022/11/20 03:39:44;;;;;;;28.73;13.75;;;;;;;-1.93;87.20;101208.44;5032303;28;20040;-71
2022/11/20 03:42:44;;;;;;;27.67;13.07;;;;;;;-1.92;87.21;101207.66;5029708;28;20037;-71
2022/11/20 03:44:55;;;;;;;29.48;13.52;;;;;;;-1.93;87.46;101200.78;5027096;28;20021;-70
2022/11/20 03:47:20;;;;;;;26.40;13.43;;;;;;;-1.92;87.20;101201.66;5033990;28;20044;-71
2022/11/20 03:49:46;;;;;;;29.20;13.43;;;;;;;-1.87;86.95;101199.47;5033598;28;20025;-71
2022/11/20 03:52:11;;;;;;;30.15;13.63;;;;;;;-1.85;87.14;101192.84;5038498;28;20036;-71
2022/11/20 03:54:36;;;;;;;29.85;13.63;;;;;;;-1.85;87.39;101191.16;5035180;28;20030;-71
2022/11/20 03:57:01;;;;;;;26.88;13.13;;;;;;;-1.84;87.21;101192.03;5031643;28;20077;-71
2022/11/20 03:59:27;;;;;;;27.35;13.00;;;;;;;-1.85;87.01;101192.84;5039469;28;20017;-70
2022/11/20 04:01:52;;;;;;;31.42;14.18;;;;;;;-1.86;87.21;101188.50;5029973;28;20153;-71
2022/11/20 04:04:17;;;;;;;30.15;14.10;;;;;;;-1.87;87.44;101177.38;5038659;28;20045;-71
2022/11/20 04:06:42;;;;;;;27.67;13.48;;;;;;;-1.89;87.21;101181.47;5033363;28;20264;-70
2022/11/20 04:09:08;;;;;;;30.33;13.98;;;;;;;-1.89;87.13;101178.91;5017139;28;20028;-71
2022/11/20 04:11:36;;;;;;;28.85;14.27;;;;;;;-1.91;87.46;101183.03;5034543;28;20026;-70
2022/11/20 04:14:04;;;;;;;29.77;13.07;;;;;;;-1.92;87.59;101183.78;5040750;28;20268;-71
2022/11/20 04:16:32;;;;;;;28.55;13.27;;;;;;;-1.93;87.23;101179.44;5034919;28;20033;-70
2022/11/20 04:19:00;;;;;;;31.13;13.80;;;;;;;-1.94;87.54;101187.88;5027633;28;20049;-71
2022/11/20 04:21:26;;;;;;;28.33;13.10;;;;;;;-1.96;87.18;101182.63;5033159;28;20018;-70
2022/11/20 04:23:52;;;;;;;28.05;14.35;;;;;;;-1.96;86.55;101186.88;5034043;28;20088;-71
2022/11/20 04:26:18;;;;;;;27.98;13.88;;;;;;;-1.98;86.88;101196.97;5031512;28;20274;-71
2022/11/20 04:28:44;;;;;;;31.25;14.05;;;;;;;-1.99;86.67;101182.41;5033777;28;20033;-71
2022/11/20 04:31:10;;;;;;;28.73;13.77;;;;;;;-1.99;87.14;101176.41;5036921;28;20279;-71
2022/11/20 04:33:36;;;;;;;30.17;13.30;;;;;;;-2.04;86.84;101175.13;5042755;28;20029;-71
2022/11/20 04:36:23;;;;;;;27.55;13.68;;;;;;;-2.06;86.64;101180.13;5033121;28;20272;-71
2022/11/20 04:38:57;;;;;;;29.30;13.10;;;;;;;-2.08;86.63;101176.56;5038483;28;20259;-71
2022/11/20 04:41:25;;;;;;;30.27;13.90;;;;;;;-2.10;86.47;101180.66;5029609;28;20030;-70
2022/11/20 04:43:52;;;;;;;29.65;13.70;;;;;;;-2.11;86.34;101178.88;5038461;28;20038;-71
2022/11/20 04:46:20;;;;;;;29.60;14.63;;;;;;;-2.14;86.71;101174.41;5020509;28;20184;-71
2022/11/20 04:48:46;;;;;;;28.33;13.93;;;;;;;-2.15;86.68;101166.66;5034255;28;20082;-71
2022/11/20 04:51:12;;;;;;;28.67;12.75;;;;;;;-2.17;86.82;101165.63;5030410;28;20021;-71
2022/11/20 04:53:37;;;;;;;31.10;14.45;;;;;;;-2.19;87.04;101165.50;5031845;28;20083;-71
2022/11/20 04:56:08;;;;;;;29.83;13.88;;;;;;;-2.22;86.32;101166.91;5040605;28;20025;-70
2022/11/20 04:58:34;;;;;;;27.15;13.32;;;;;;;-2.28;86.31;101165.66;5034782;28;20021;-71
2022/11/20 05:01:14;;;;;;;26.88;13.05;;;;;;;-2.32;86.30;101157.63;5030076;28;20998;-71
2022/11/20 05:03:43;;;;;;;29.40;14.10;;;;;;;-2.36;86.71;101168.34;5033223;28;20030;-71
2022/11/20 05:06:15;;;;;;;28.73;12.75;;;;;;;-2.39;87.27;101166.47;5024063;28;20013;-70
2022/11/20 05:08:41;;;;;;;31.52;14.38;;;;;;;-2.38;86.85;101168.22;5036260;28;20029;-70
2022/11/20 05:11:12;;;;;;;29.30;13.98;;;;;;;-2.35;87.01;101157.38;5041990;28;20021;-71
2022/11/20 05:13:37;;;;;;;30.88;14.05;;;;;;;-2.33;87.00;101154.19;5030505;28;20234;-70
2022/11/20 05:16:12;;;;;;;31.20;14.25;;;;;;;-2.34;87.62;101148.97;5043259;28;20045;-70
2022/11/20 05:18:38;;;;;;;27.75;12.60;;;;;;;-2.38;87.21;101144.38;5045603;28;20021;-71
2022/11/20 05:21:04;;;;;;;31.20;14.38;;;;;;;-2.38;87.49;101146.94;5037351;28;20089;-71
2022/11/20 05:23:31;;;;;;;29.95;13.90;;;;;;;-2.37;87.44;101149.63;5046073;28;20211;-70
2022/11/20 05:25:57;;;;;;;31.85;14.57;;;;;;;-2.38;88.05;101136.72;5044681;28;20068;-70
2022/11/20 05:28:23;;;;;;;30.88;14.52;;;;;;;-2.43;88.01;101141.47;5046721;28;20021;-71
2022/11/20 05:30:49;;;;;;;32.15;14.75;;;;;;;-2.43;88.61;101145.66;5033162;28;20108;-70
2022/11/20 05:33:14;;;;;;;32.03;13.95;;;;;;;-2.43;88.75;101136.38;5046056;28;20017;-71
2022/11/20 05:35:40;;;;;;;30.73;13.98;;;;;;;-2.39;89.12;101146.06;5046077;28;20021;-71
2022/11/20 05:38:05;;;;;;;33.28;14.75;;;;;;;-2.34;88.53;101138.75;5045934;28;20044;-70
2022/11/20 05:40:30;;;;;;;31.02;14.63;;;;;;;-2.32;88.54;101135.56;5040514;28;20096;-71
2022/11/20 05:42:55;;;;;;;29.17;13.65;;;;;;;-2.29;89.20;101138.38;5041486;28;20029;-71
2022/11/20 05:45:21;;;;;;;33.85;14.60;;;;;;;-2.24;88.76;101140.41;5033852;28;20060;-70
2022/11/20 05:47:46;;;;;;;32.03;14.10;;;;;;;-2.22;88.94;101144.84;5035234;28;20088;-71
2022/11/20 05:50:11;;;;;;;32.65;14.65;;;;;;;-2.21;89.10;101146.63;5031262;28;20025;-71
2022/11/20 05:52:37;;;;;;;33.88;15.57;;;;;;;-2.20;89.22;101148.41;5040102;28;20195;-71
2022/11/20 05:55:02;;;;;;;34.72;14.82;;;;;;;-2.17;89.36;101148.66;5036439;28;20038;-71
2022/11/20 05:57:28;;;;;;;30.60;14.10;;;;;;;-2.12;89.31;101161.78;5040017;28;20056;-71
2022/11/20 05:59:53;;;;;;;32.58;14.10;;;;;;;-2.09;89.64;101164.56;5036080;28;20068;-70
2022/11/20 06:02:18;;;;;;;32.92;14.73;;;;;;;-2.07;89.54;101170.72;5036547;28;20021;-71
2022/11/20 06:04:43;;;;;;;33.67;15.45;;;;;;;-2.05;89.85;101169.16;5038908;28;20021;-71
2022/11/20 06:07:09;;;;;;;34.75;15.93;;;;;;;-2.00;90.14;101166.97;5034535;28;20029;-71
2022/11/20 06:09:34;;;;;;;33.88;15.38;;;;;;;-1.97;89.95;101165.56;5034616;28;20025;-71
2022/11/20 06:12:00;;;;;;;37.03;15.52;;;;;;;-1.96;90.00;101162.22;5036298;28;20168;-71
2022/11/20 06:14:25;;;;;;;35.42;15.13;;;;;;;-1.93;90.27;101162.47;5032603;28;20271;-71
2022/11/20 06:16:50;;;;;;;34.95;15.88;;;;;;;-1.88;90.01;101164.47;5039936;28;20066;-71
2022/11/20 06:19:16;;;;;;;34.20;15.65;;;;;;;-1.86;89.91;101168.94;5029048;28;20063;-71
2022/11/20 06:21:41;;;;;;;35.50;15.60;;;;;;;-1.86;90.13;101175.72;5035615;28;20025;-71
2022/11/20 06:24:09;;;;;;;41.35;15.75;;;;;;;-1.83;90.54;101168.28;5042778;28;20076;-71
2022/11/20 06:26:34;;;;;;;35.30;15.68;;;;;;;-1.82;90.20;101167.53;5033340;28;20028;-71
2022/11/20 06:29:00;;;;;;;33.63;15.38;;;;;;;-1.79;90.42;101163.53;5040416;28;20076;-71
2022/11/20 06:31:26;;;;;;;36.10;15.85;;;;;;;-1.76;90.20;101168.88;5033596;28;20025;-71
2022/11/20 06:33:51;;;;;;;37.35;16.52;;;;;;;-1.69;90.33;101174.50;5041328;28;20024;-71
2022/11/20 06:36:19;;;;;;;35.35;15.73;;;;;;;-1.68;90.42;101172.06;5033357;28;20078;-71
2022/11/20 06:38:45;;;;;;;32.63;14.40;;;;;;;-1.67;90.64;101163.59;5033953;28;20275;-71
2022/11/20 06:41:13;;;;;;;32.80;15.38;;;;;;;-1.64;90.91;101158.72;5033731;28;20017;-71
2022/11/20 06:43:39;;;;;;;37.83;16.17;;;;;;;-1.64;90.53;101163.84;5032049;28;20105;-71
2022/11/20 06:46:04;;;;;;;33.17;15.27;;;;;;;-1.62;90.90;101161.44;5038295;28;20048;-71
2022/11/20 06:48:30;;;;;;;39.58;16.83;;;;;;;-1.61;91.10;101155.53;5037137;28;20044;-71
2022/11/20 06:50:56;;;;;;;37.05;15.93;;;;;;;-1.61;91.06;101148.78;5032884;28;20047;-71
2022/11/20 06:53:22;;;;;;;38.42;16.90;;;;;;;-1.62;91.02;101146.09;5033107;28;20311;-71
2022/11/20 06:55:49;;;;;;;35.53;16.90;;;;;;;-1.61;91.24;101143.66;5035567;28;20097;-71
2022/11/20 06:58:15;;;;;;;37.10;16.33;;;;;;;-1.57;91.53;101137.97;5037050;28;20021;-71
2022/11/20 07:00:41;;;;;;;37.08;16.60;;;;;;;-1.53;90.87;101148.47;5031883;28;20027;-71
2022/11/20 07:03:08;;;;;;;39.15;17.20;;;;;;;-1.53;91.32;101146.78;5038358;28;20014;-71
2022/11/20 07:05:34;;;;;;;40.05;16.98;;;;;;;-1.50;91.48;101151.25;5031289;28;20037;-72
2022/11/20 07:07:59;;;;;;;46.30;18.10;;;;;;;-1.52;91.31;101152.78;5027138;28;20029;-65
2022/11/20 07:10:25;;;;;;;36.00;16.38;;;;;;;-1.51;91.84;101149.47;5038749;28;20240;-65
2022/11/20 07:12:52;;;;;;;38.20;17.08;;;;;;;-1.48;91.43;101152.25;5035939;28;20322;-65
2022/11/20 07:15:18;;;;;;;39.03;16.95;;;;;;;-1.49;91.46;101147.91;5037511;28;20048;-65
2022/11/20 07:17:44;;;;;;;42.45;17.65;;;;;;;-1.48;91.84;101144.59;5034154;28;20018;-66
2022/11/20 07:20:09;;;;;;;41.90;18.13;;;;;;;-1.48;91.73;101140.34;5041571;28;20027;-65
2022/11/20 07:22:35;;;;;;;40.33;18.38;;;;;;;-1.46;92.17;101137.94;5039047;28;20039;-65
2022/11/20 07:25:01;;;;;;;42.45;18.30;;;;;;;-1.41;92.40;101139.16;5040563;28;20025;-65
2022/11/20 07:27:26;;;;;;;44.78;19.60;;;;;;;-1.36;92.32;101139.50;5043457;28;20088;-65
2022/11/20 07:29:52;;;;;;;39.25;17.90;;;;;;;-1.33;92.74;101130.44;5040264;28;20021;-65
2022/11/20 07:32:17;;;;;;;42.35;17.83;;;;;;;-1.28;92.12;101131.66;5044073;28;20092;-65
2022/11/20 07:34:42;;;;;;;40.22;17.17;;;;;;;-1.24;92.12;101132.78;5038657;28;20021;-65
2022/11/20 07:37:08;;;;;;;39.38;18.33;;;;;;;-1.23;91.99;101142.25;5027919;28;20026;-65
2022/11/20 07:39:33;;;;;;;39.50;17.45;;;;;;;-1.21;92.40;101133.03;5032007;28;20033;-65
2022/11/20 07:41:58;;;;;;;40.55;18.08;;;;;;;-1.18;92.68;101129.81;5035355;28;20196;-66
2022/11/20 07:44:23;;;;;;;40.67;17.15;;;;;;;-1.15;92.20;101124.91;5034295;28;20056;-65
2022/11/20 07:46:49;;;;;;;40.78;18.95;;;;;;;-1.10;92.39;101123.59;5019069;28;20183;-72
2022/11/20 07:49:14;;;;;;;39.70;18.27;;;;;;;-1.06;92.29;101123.94;5032257;28;20029;-72
2022/11/20 07:51:39;;;;;;;40.10;18.83;;;;;;;-1.02;92.22;101127.63;5039174;28;20025;-72
2022/11/20 07:54:04;;;;;;;43.03;19.27;;;;;;;-1.02;92.68;101132.72;5031224;28;20239;-72
2022/11/20 07:56:30;;;;;;;41.85;19.20;;;;;;;-1.02;92.83;101127.63;5037247;28;20044;-72
2022/11/20 07:58:55;;;;;;;42.97;19.23;;;;;;;-1.05;92.59;101123.16;5041473;28;20030;-72
2022/11/20 08:01:20;;;;;;;43.30;18.75;;;;;;;-1.01;93.29;101124.28;5028328;28;20092;-72
2022/11/20 08:03:46;;;;;;;41.70;18.48;;;;;;;-0.97;92.97;101140.75;5033084;28;20025;-72
2022/11/20 08:06:11;;;;;;;45.95;19.65;;;;;;;-0.94;92.87;101135.84;5033938;28;20048;-73
2022/11/20 08:08:38;;;;;;;39.60;18.33;;;;;;;-0.95;92.11;101140.09;5028287;28;20036;-73
2022/11/20 08:16:31;;;;;;;45.50;18.67;;;;;;;-0.88;92.60;101137.19;5033561;28;20255;-72
2022/11/20 08:18:56;;;;;;;48.10;21.10;;;;;;;-0.81;92.68;101132.53;5040517;28;20009;-73
2022/11/20 08:21:22;;;;;;;41.70;18.83;;;;;;;-0.77;93.14;101134.53;5035019;28;20434;-73
2022/11/20 08:23:47;;;;;;;42.40;18.92;;;;;;;-0.73;92.72;101131.44;5037090;28;20039;-74
2022/11/20 08:26:12;;;;;;;42.65;19.83;;;;;;;-0.70;92.27;101126.53;5028999;28;20161;-72
2022/11/20 08:28:37;;;;;;;42.65;19.10;;;;;;;-0.67;92.37;101125.88;5028634;28;20041;-72
2022/11/20 08:31:03;;;;;;;43.03;19.98;;;;;;;-0.65;91.72;101125.22;5025931;28;20037;-72
2022/11/20 08:33:29;;;;;;;41.08;18.98;;;;;;;-0.68;92.39;101117.34;5030547;28;20017;-72
2022/11/20 08:35:59;;;;;;;44.25;19.52;;;;;;;-0.67;93.04;101126.75;5025188;28;20056;-72
2022/11/20 08:38:25;;;;;;;43.20;19.50;;;;;;;-0.63;92.69;101131.34;5028430;28;20264;-71
2022/11/20 08:43:34;;;;;;;46.22;18.88;;;;;;;-0.50;93.17;101127.13;5027002;28;20172;-71
2022/11/20 08:45:59;;;;;;;42.22;19.65;;;;;;;-0.47;92.76;101133.34;5029923;28;20200;-71
2022/11/20 08:48:24;;;;;;;48.50;21.52;;;;;;;-0.44;92.76;101130.13;5030686;28;20033;-72
2022/11/20 08:50:50;;;;;;;45.63;22.67;;;;;;;-0.42;92.55;101123.41;5030926;28;20044;-72
2022/11/20 08:53:15;;;;;;;51.38;23.30;;;;;;;-0.40;93.31;101122.75;5037350;28;20283;-72
2022/11/20 08:55:40;;;;;;;48.78;22.85;;;;;;;-0.34;93.11;101122.31;5042833;28;20031;-72
2022/11/20 08:58:06;;;;;;;47.80;22.00;;;;;;;-0.30;93.12;101124.31;5024714;28;20024;-72
2022/11/20 09:00:32;;;;;;;50.42;23.73;;;;;;;-0.23;93.89;101123.97;5039745;28;20025;-72
2022/11/20 09:02:58;;;;;;;50.97;23.08;;;;;;;-0.16;93.18;101124.41;5028377;28;20053;-71
2022/11/20 09:05:24;;;;;;;51.78;24.20;;;;;;;-0.12;93.98;101114.47;5035588;28;20028;-71
2022/11/20 09:07:49;;;;;;;51.70;24.63;;;;;;;-0.08;94.27;101107.94;5029525;28;20132;-72
2022/11/20 09:10:14;;;;;;;55.22;25.27;;;;;;;-0.02;94.08;101124.59;5033045;28;20260;-71
2022/11/20 09:12:40;;;;;;;53.30;24.42;;;;;;;0.02;94.64;101125.72;5039609;28;20026;-71
2022/11/20 09:15:05;;;;;;;49.55;24.75;;;;;;;0.08;94.11;101118.47;5038950;28;20173;-72
2022/11/20 09:17:31;;;;;;;52.35;23.52;;;;;;;0.12;94.38;101107.66;5040172;28;20045;-71
2022/11/20 09:19:56;;;;;;;51.58;23.65;;;;;;;0.19;94.51;101105.50;5019998;28;20024;-71
2022/11/20 09:22:21;;;;;;;54.30;22.48;;;;;;;0.26;94.89;101107.69;5038013;28;20263;-71
2022/11/20 09:24:46;;;;;;;51.38;22.58;;;;;;;0.32;94.87;101103.03;5042228;28;20160;-70
2022/11/20 09:27:12;;;;;;;55.30;22.65;;;;;;;0.38;95.33;101093.19;5041325;28;20020;-72
2022/11/20 09:29:37;;;;;;;54.80;22.77;;;;;;;0.44;94.83;101092.72;5031188;28;20021;-71
2022/11/20 09:32:02;;;;;;;54.78;22.42;;;;;;;0.50;95.61;101098.25;5034510;28;20089;-71
2022/11/20 09:34:28;;;;;;;58.85;23.25;;;;;;;0.55;95.05;101090.88;5037501;28;20081;-70
2022/11/20 09:36:53;;;;;;;54.90;22.48;;;;;;;0.60;94.71;101085.28;5036850;28;20036;-70
2022/11/20 09:39:18;;;;;;;55.85;22.27;;;;;;;0.65;94.39;101080.44;5042451;28;20014;-70
2022/11/20 09:41:47;;;;;;;57.15;22.98;;;;;;;0.71;95.53;101073.19;5032674;28;20033;-70
2022/11/20 09:44:31;;;;;;;60.78;23.25;;;;;;;0.78;95.93;101070.25;5041674;28;20028;-70
2022/11/20 09:47:08;;;;;;;60.15;23.38;;;;;;;0.85;96.05;101072.44;5037008;28;20025;-70
2022/11/20 09:49:52;;;;;;;58.85;23.23;;;;;;;0.91;95.21;101066.78;5039501;28;20239;-69
2022/11/20 09:52:41;;;;;;;59.72;22.58;;;;;;;0.94;95.33;101059.31;5034720;28;20088;-69
2022/11/20 09:55:11;;;;;;;65.18;23.65;;;;;;;0.99;95.04;101057.06;5043291;28;20030;-69
2022/11/20 09:57:40;;;;;;;60.97;23.10;;;;;;;1.03;94.81;101054.78;5037218;28;20021;-69
2022/11/20 10:00:13;;;;;;;71.38;25.75;;;;;;;1.07;95.23;101052.41;5025285;28;20044;-69
2022/11/20 10:03:11;;;;;;;69.40;25.85;;;;;;;1.10;94.83;101053.50;5038036;28;20025;-69
2022/11/20 10:05:47;;;;;;;77.78;26.15;;;;;;;1.12;95.06;101044.22;5032119;28;20153;-69
2022/11/20 10:08:16;;;;;;;72.03;25.02;;;;;;;1.15;95.57;101038.41;5024201;28;20029;-69
2022/11/20 10:10:54;;;;;;;78.47;28.05;;;;;;;1.17;95.06;101035.16;5037991;28;20042;-69
2022/11/20 10:13:52;;;;;;;73.55;26.65;;;;;;;1.21;95.67;101028.53;5041388;28;20025;-68
2022/11/20 10:16:39;;;;;;;70.90;28.52;;;;;;;1.26;95.80;101029.72;5040288;28;20034;-68
2022/11/20 10:19:19;;;;;;;75.28;27.70;;;;;;;1.33;96.62;101016.50;5036985;28;20208;-68
2022/11/20 10:21:56;;;;;;;76.45;27.00;;;;;;;1.37;96.19;101013.31;5039462;28;20299;-69
2022/11/20 10:24:43;;;;;;;66.13;24.05;;;;;;;1.44;96.00;101014.59;5022209;28;20172;-69
2022/11/20 10:27:29;;;;;;;73.18;26.17;;;;;;;1.49;95.65;101000.38;5034151;28;20023;-68
2022/11/20 10:30:08;;;;;;;76.85;25.58;;;;;;;1.51;95.45;100993.63;5041981;28;20187;-68
2022/11/20 10:32:38;;;;;;;77.82;27.05;;;;;;;1.52;95.67;100982.59;5031219;28;20176;-68
2022/11/20 10:35:20;;;;;;;80.72;27.05;;;;;;;1.55;96.12;100967.38;5024907;28;20025;-68
2022/11/20 10:37:51;;;;;;;84.60;27.65;;;;;;;1.60;95.96;100966.75;5041623;28;20029;-68
2022/11/20 10:40:34;;;;;;;87.70;28.35;;;;;;;1.63;95.37;100964.38;5030710;28;20212;-68
2022/11/20 10:43:07;;;;;;;81.20;27.85;;;;;;;1.62;95.37;100963.47;5036969;28;20097;-68
2022/11/20 10:46:06;;;;;;;86.65;27.77;;;;;;;1.63;95.12;100954.09;5030830;28;20216;-68
2022/11/20 10:48:32;;;;;;;;;;;;;;;1.68;94.95;100960.41;5025786;28;20048;-68
2022/11/20 10:51:10;;;;;;;80.22;26.30;;;;;;;1.70;95.80;100956.25;5033597;28;19902;-68
2022/11/20 10:53:55;;;;;;;80.70;27.53;;;;;;;1.70;95.91;100948.56;5044167;28;20025;-68
2022/11/20 10:56:48;;;;;;;76.15;26.40;;;;;;;1.68;95.50;100942.41;5037459;28;20076;-68
2022/11/20 10:59:38;;;;;;;78.28;26.23;;;;;;;1.71;95.99;100942.63;5034364;28;20028;-68
2022/11/20 11:02:23;;;;;;;79.30;25.70;;;;;;;1.74;96.74;100924.84;5038538;28;20179;-68
2022/11/20 11:04:50;;;;;;;79.30;26.75;;;;;;;1.74;95.55;100923.13;5030680;28;20088;-68
2022/11/20 11:07:30;;;;;;;81.15;26.95;;;;;;;1.75;95.95;100916.31;5020505;28;20021;-68
2022/11/20 11:09:56;;;;;;;;;;;;;;;1.81;95.48;100920.94;5036376;28;20061;-67
2022/11/20 11:12:24;;;;;;;67.53;24.90;;;;;;;1.80;95.93;100917.50;5027336;28;19901;-67
2022/11/20 11:14:52;;;;;;;74.32;25.23;;;;;;;1.82;96.16;100915.88;5043214;28;20021;-67
2022/11/20 11:17:32;;;;;;;75.75;27.20;;;;;;;1.84;96.51;100916.88;5040802;28;20201;-68
2022/11/20 11:20:13;;;;;;;72.60;26.75;;;;;;;1.89;96.93;100920.59;5032359;28;20116;-68
2022/11/20 11:22:46;;;;;;;78.97;26.42;;;;;;;1.94;96.72;100919.97;5039534;28;20124;-68
2022/11/20 11:25:25;;;;;;;73.25;26.33;;;;;;;1.95;96.93;100921.78;5042255;28;20017;-67